Time;durP1;ratioP1;P1;durP2;ratioP2;P2;SDS_P1;SDS_P2;PMS_P1;PMS_P2;Temp;Humidity;BMP_temperature;BMP_pressure;BME280_temperature;BME280_humidity;BME280_pressure;Samples;Min_cycle;Max_cycle;Signal;HPM_P1;HPM_P2
2021/07/30 00:00:05;;;;;;;4.32;3.47;;;23.60;77.00;;;;;;5035961;28;20149;-47
2021/07/30 00:02:31;;;;;;;6.07;3.70;;;23.60;77.10;;;;;;5035752;28;20036;-48
2021/07/30 00:04:56;;;;;;;4.82;3.60;;;23.60;77.20;;;;;;5035672;28;20033;-48
2021/07/30 00:07:22;;;;;;;8.13;3.55;;;23.60;77.00;;;;;;5035496;28;20278;-46
2021/07/30 00:09:48;;;;;;;7.85;3.97;;;23.60;77.20;;;;;;5035692;28;20084;-44
2021/07/30 00:12:14;;;;;;;4.95;3.17;;;23.60;77.30;;;;;;5035690;28;20049;-46
2021/07/30 00:14:39;;;;;;;6.50;3.30;;;23.60;77.70;;;;;;5035580;28;20477;-46
2021/07/30 00:17:05;;;;;;;4.00;3.40;;;23.60;77.70;;;;;;5035632;28;20028;-48
2021/07/30 00:19:33;;;;;;;5.72;3.45;;;23.60;78.00;;;;;;5035726;28;20064;-46
2021/07/30 00:21:58;;;;;;;4.65;3.28;;;23.60;77.60;;;;;;5035509;28;20083;-46
2021/07/30 00:24:24;;;;;;;3.97;3.47;;;23.60;77.20;;;;;;5035698;28;20029;-46
2021/07/30 00:26:50;;;;;;;5.03;3.10;;;23.60;77.30;;;;;;5035803;28;20313;-45
2021/07/30 00:29:17;;;;;;;5.18;3.33;;;23.60;77.50;;;;;;5035539;28;20037;-48
2021/07/30 00:31:42;;;;;;;4.63;3.65;;;23.60;77.60;;;;;;5035381;28;20280;-50
2021/07/30 00:34:08;;;;;;;7.20;3.80;;;23.60;77.70;;;;;;5035551;28;20037;-48
2021/07/30 00:36:34;;;;;;;4.65;3.22;;;23.60;77.80;;;;;;5035293;28;20029;-49
2021/07/30 00:38:59;;;;;;;5.63;3.40;;;23.60;77.70;;;;;;5035498;28;20088;-46
2021/07/30 00:41:25;;;;;;;6.60;3.42;;;23.60;78.00;;;;;;5035184;28;20076;-47
2021/07/30 00:43:51;;;;;;;6.75;4.85;;;23.60;77.80;;;;;;5035768;28;20036;-47
2021/07/30 00:46:17;;;;;;;7.85;3.97;;;23.60;77.70;;;;;;5035655;28;20026;-47
2021/07/30 00:48:44;;;;;;;4.72;3.75;;;23.60;77.80;;;;;;5035777;28;20083;-51
2021/07/30 00:51:13;;;;;;;4.43;3.55;;;23.60;78.20;;;;;;5034897;28;20034;-47
2021/07/30 00:53:40;;;;;;;7.80;3.80;;;23.50;77.80;;;;;;5035357;28;20037;-45
2021/07/30 00:56:06;;;;;;;6.50;4.18;;;23.50;78.10;;;;;;5035015;28;20030;-50
2021/07/30 00:58:33;;;;;;;6.85;4.22;;;23.50;78.30;;;;;;5035641;28;20087;-50
2021/07/30 01:00:59;;;;;;;5.07;3.78;;;23.50;78.00;;;;;;5035147;28;20037;-47
2021/07/30 01:03:26;;;;;;;6.65;4.10;;;23.50;78.00;;;;;;5035509;28;20037;-44
2021/07/30 01:05:53;;;;;;;5.40;3.90;;;23.50;78.20;;;;;;5035250;28;20037;-46
2021/07/30 01:08:20;;;;;;;6.40;3.67;;;23.50;78.20;;;;;;5035278;28;20037;-48
2021/07/30 01:10:50;;;;;;;8.40;4.07;;;23.40;77.80;;;;;;5035221;28;20026;-49
2021/07/30 01:13:19;;;;;;;6.28;3.50;;;23.40;77.70;;;;;;5035325;28;20163;-49
2021/07/30 01:15:45;;;;;;;6.28;3.90;;;23.40;77.40;;;;;;5037033;28;20038;-50
2021/07/30 01:18:11;;;;;;;5.82;3.97;;;23.40;77.10;;;;;;5039110;28;20355;-48
2021/07/30 01:20:42;;;;;;;5.65;3.80;;;23.30;77.00;;;;;;5038987;28;20033;-47
2021/07/30 01:23:10;;;;;;;4.55;3.72;;;23.30;76.90;;;;;;5038708;28;20171;-45
2021/07/30 01:25:39;;;;;;;4.55;3.72;;;23.30;77.30;;;;;;5038773;28;20026;-48
2021/07/30 01:28:08;;;;;;;6.45;3.83;;;23.30;77.40;;;;;;5038819;28;20421;-49
2021/07/30 01:30:34;;;;;;;4.65;3.80;;;23.30;77.30;;;;;;5038971;28;20026;-49
2021/07/30 01:33:00;;;;;;;5.82;4.22;;;23.20;77.20;;;;;;5038907;28;20041;-47
2021/07/30 01:35:26;;;;;;;6.88;4.25;;;23.20;77.30;;;;;;5038872;28;20405;-50
2021/07/30 01:37:51;;;;;;;7.22;4.30;;;23.20;78.10;;;;;;5039017;28;20108;-46
2021/07/30 01:40:21;;;;;;;7.68;3.95;;;23.20;77.40;;;;;;5038025;28;20060;-45
2021/07/30 01:42:46;;;;;;;6.67;4.33;;;23.20;77.40;;;;;;5038538;28;20041;-47
2021/07/30 01:45:12;;;;;;;7.55;4.75;;;23.10;77.40;;;;;;5038393;28;20414;-48
2021/07/30 01:47:38;;;;;;;9.00;4.78;;;23.00;77.50;;;;;;5038412;28;20045;-46
2021/07/30 01:50:04;;;;;;;6.97;4.63;;;23.00;77.50;;;;;;5037899;28;20088;-46
2021/07/30 01:52:30;;;;;;;7.75;4.75;;;23.00;77.70;;;;;;5038294;28;20083;-44
2021/07/30 01:54:55;;;;;;;7.45;4.53;;;22.90;77.40;;;;;;5038305;28;20029;-47
2021/07/30 01:57:21;;;;;;;4.93;3.58;;;22.90;77.20;;;;;;5038260;28;20067;-46
2021/07/30 01:59:47;;;;;;;5.70;4.07;;;22.90;77.20;;;;;;5038112;28;20026;-47
2021/07/30 02:02:12;;;;;;;5.28;3.72;;;22.80;77.30;;;;;;5037940;28;20033;-48
2021/07/30 02:04:38;;;;;;;7.68;4.82;;;22.80;77.30;;;;;;5038113;28;20036;-50
2021/07/30 02:07:04;;;;;;;4.45;3.65;;;22.80;77.60;;;;;;5037987;28;20033;-45
2021/07/30 02:09:30;;;;;;;7.18;4.10;;;22.80;77.60;;;;;;5037868;28;20025;-48
2021/07/30 02:11:56;;;;;;;6.90;4.80;;;22.70;77.50;;;;;;5038167;28;20025;-49
2021/07/30 02:14:28;;;;;;;5.72;3.80;;;22.70;77.60;;;;;;5038180;28;20245;-51
2021/07/30 02:17:00;;;;;;;6.70;4.32;;;22.70;77.90;;;;;;5037820;28;20029;-49
2021/07/30 02:19:26;;;;;;;7.72;4.30;;;22.70;77.70;;;;;;5037633;28;20041;-46
2021/07/30 02:21:54;;;;;;;6.15;4.13;;;22.70;77.70;;;;;;5038131;28;20029;-44
2021/07/30 02:24:20;;;;;;;4.50;3.83;;;22.70;77.60;;;;;;5037733;28;20152;-50
2021/07/30 02:26:46;;;;;;;4.90;3.88;;;22.70;77.80;;;;;;5037682;28;20117;-47
2021/07/30 02:29:12;;;;;;;7.18;3.75;;;22.70;77.50;;;;;;5037568;28;20400;-44
2021/07/30 02:31:38;;;;;;;5.05;3.85;;;22.70;77.30;;;;;;5037419;28;20029;-44
2021/07/30 02:34:03;;;;;;;5.20;4.32;;;22.70;77.40;;;;;;5038166;28;20029;-46
2021/07/30 02:36:29;;;;;;;6.70;3.97;;;22.70;77.50;;;;;;5036413;28;20026;-49
2021/07/30 02:38:55;;;;;;;5.05;4.07;;;22.70;77.40;;;;;;5037536;28;20049;-47
2021/07/30 02:41:21;;;;;;;6.18;4.20;;;22.70;77.60;;;;;;5037597;28;20065;-45
2021/07/30 02:43:47;;;;;;;4.93;3.75;;;22.70;77.70;;;;;;5037784;28;20317;-48
2021/07/30 02:46:16;;;;;;;5.57;3.83;;;22.80;77.50;;;;;;5037168;28;20112;-47
2021/07/30 02:48:44;;;;;;;7.70;4.15;;;22.80;77.40;;;;;;5037816;28;20038;-48
2021/07/30 02:51:11;;;;;;;4.95;4.10;;;22.70;77.10;;;;;;5037228;28;20018;-46
2021/07/30 02:53:38;;;;;;;5.88;3.88;;;22.70;77.00;;;;;;5037602;28;20419;-47
2021/07/30 02:56:04;;;;;;;7.78;3.92;;;22.70;77.10;;;;;;5037444;28;20071;-47
2021/07/30 02:58:30;;;;;;;4.72;3.70;;;22.70;77.20;;;;;;5037648;28;20029;-49
2021/07/30 03:00:56;;;;;;;5.53;3.33;;;22.70;77.20;;;;;;5037195;28;20081;-50
2021/07/30 03:03:22;;;;;;;6.22;4.20;;;22.70;77.40;;;;;;5037310;28;20168;-47
2021/07/30 03:05:48;;;;;;;4.95;4.15;;;22.70;77.30;;;;;;5037280;28;20053;-47
2021/07/30 03:08:14;;;;;;;7.40;4.30;;;22.70;77.20;;;;;;5037040;28;20108;-47
2021/07/30 03:10:39;;;;;;;5.15;3.67;;;22.70;76.90;;;;;;5037302;28;20406;-47
2021/07/30 03:13:05;;;;;;;6.68;4.60;;;22.70;76.90;;;;;;5036783;28;20044;-50
2021/07/30 03:15:31;;;;;;;6.85;4.55;;;22.80;76.90;;;;;;5036971;28;20029;-47
2021/07/30 03:17:56;;;;;;;5.93;4.38;;;22.80;76.90;;;;;;5036853;28;20314;-45
2021/07/30 03:20:22;;;;;;;7.88;4.35;;;22.80;77.20;;;;;;5036553;28;20045;-47
2021/07/30 03:22:47;;;;;;;5.47;4.13;;;22.80;76.90;;;;;;5036832;28;20033;-48
2021/07/30 03:25:13;;;;;;;6.97;4.53;;;22.80;76.90;;;;;;5036818;28;20103;-46
2021/07/30 03:27:41;;;;;;;9.60;6.05;;;22.80;77.00;;;;;;5036585;28;20108;-47
2021/07/30 03:30:08;;;;;;;6.05;4.57;;;22.80;77.30;;;;;;5036579;28;20413;-46
2021/07/30 03:32:33;;;;;;;5.82;3.92;;;22.80;76.90;;;;;;5036558;28;20040;-45
2021/07/30 03:34:59;;;;;;;8.52;5.13;;;22.80;76.80;;;;;;5036538;28;20034;-47
2021/07/30 03:37:25;;;;;;;8.23;4.50;;;22.80;76.70;;;;;;5036272;28;20098;-47
2021/07/30 03:39:50;;;;;;;6.45;4.78;;;22.80;76.60;;;;;;5035947;28;20065;-46
2021/07/30 03:42:16;;;;;;;8.02;4.93;;;22.80;76.80;;;;;;5035532;28;20037;-47
2021/07/30 03:44:41;;;;;;;7.38;4.82;;;22.90;77.00;;;;;;5034742;28;20330;-48
2021/07/30 03:47:07;;;;;;;7.28;4.80;;;22.90;76.90;;;;;;5035603;28;20034;-46
2021/07/30 03:49:33;;;;;;;5.72;4.50;;;22.80;77.00;;;;;;5035451;28;20044;-47
2021/07/30 03:51:58;;;;;;;8.77;4.97;;;22.90;77.00;;;;;;5036137;28;20032;-49
2021/07/30 03:54:24;;;;;;;6.15;4.80;;;22.90;76.90;;;;;;5036098;28;20026;-46
2021/07/30 03:56:49;;;;;;;8.35;4.68;;;22.90;76.80;;;;;;5036049;28;20156;-48
2021/07/30 03:59:16;;;;;;;7.13;4.25;;;23.00;76.80;;;;;;5035963;28;20486;-47
2021/07/30 04:01:48;;;;;;;6.45;4.60;;;23.00;76.60;;;;;;5035790;28;20116;-48
2021/07/30 04:04:15;;;;;;;8.73;4.50;;;23.00;76.60;;;;;;5035532;28;20037;-46
2021/07/30 04:06:43;;;;;;;5.93;4.72;;;23.00;76.50;;;;;;5035580;28;20022;-46
2021/07/30 04:09:13;;;;;;;8.30;5.32;;;23.00;76.60;;;;;;5035903;28;20036;-45
2021/07/30 04:11:40;;;;;;;6.75;5.40;;;23.10;76.50;;;;;;5035824;28;20045;-48
2021/07/30 04:14:06;;;;;;;9.63;5.68;;;23.20;76.70;;;;;;5036066;28;20037;-49
2021/07/30 04:16:35;;;;;;;7.60;4.85;;;23.20;76.60;;;;;;5035747;28;20440;-48
2021/07/30 04:19:02;;;;;;;8.13;5.70;;;23.20;76.80;;;;;;5036026;28;20498;-49
2021/07/30 04:21:28;;;;;;;7.70;5.65;;;23.30;76.60;;;;;;5035669;28;20356;-51
2021/07/30 04:23:54;;;;;;;11.38;6.03;;;23.30;76.70;;;;;;5035877;28;20040;-48
2021/07/30 04:26:20;;;;;;;8.98;5.80;;;23.40;76.40;;;;;;5035292;28;20034;-47
2021/07/30 04:28:46;;;;;;;9.85;5.00;;;23.40;76.40;;;;;;5036090;28;20025;-48
2021/07/30 04:31:11;;;;;;;10.40;6.88;;;23.50;76.30;;;;;;5035000;28;20152;-49
2021/07/30 04:33:37;;;;;;;8.95;5.82;;;23.50;76.40;;;;;;5035718;28;20052;-48
2021/07/30 04:36:03;;;;;;;10.23;5.85;;;23.50;76.10;;;;;;5035189;28;20029;-47
2021/07/30 04:38:28;;;;;;;7.22;5.60;;;23.50;76.20;;;;;;5035437;28;20095;-50
2021/07/30 04:40:54;;;;;;;10.63;6.35;;;23.60;76.30;;;;;;5034401;28;20034;-47
2021/07/30 04:43:19;;;;;;;12.07;6.32;;;23.60;76.60;;;;;;5035371;28;20029;-52
2021/07/30 04:45:45;;;;;;;12.80;7.25;;;23.70;76.70;;;;;;5035670;28;20402;-47
2021/07/30 04:48:11;;;;;;;9.70;7.32;;;23.80;76.80;;;;;;5035321;28;20406;-48
2021/07/30 04:50:36;;;;;;;12.23;7.00;;;23.80;76.60;;;;;;5036648;28;20037;-50
2021/07/30 04:53:02;;;;;;;8.90;6.65;;;23.90;76.60;;;;;;5038933;28;20120;-47
2021/07/30 04:55:28;;;;;;;13.48;7.82;;;23.90;76.90;;;;;;5039231;28;20029;-49
2021/07/30 04:57:53;;;;;;;10.80;7.00;;;24.10;77.20;;;;;;5039469;28;20033;-48
2021/07/30 05:00:22;;;;;;;10.15;7.53;;;24.10;76.90;;;;;;5039268;28;20029;-46
2021/07/30 05:02:52;;;;;;;10.68;7.80;;;24.30;77.00;;;;;;5039109;28;20033;-46
2021/07/30 05:05:18;;;;;;;9.73;7.38;;;24.40;76.50;;;;;;5039189;28;20034;-48
2021/07/30 05:07:44;;;;;;;12.25;8.60;;;24.40;76.10;;;;;;5039106;28;20104;-47
2021/07/30 05:10:10;;;;;;;13.40;9.07;;;24.60;76.10;;;;;;5038803;28;20026;-49
2021/07/30 05:12:36;;;;;;;12.30;8.18;;;24.60;75.90;;;;;;5038945;28;20471;-46
2021/07/30 05:15:01;;;;;;;16.13;10.35;;;24.70;75.80;;;;;;5038912;28;20037;-49
2021/07/30 05:17:27;;;;;;;17.95;9.07;;;24.80;75.50;;;;;;5038704;28;20469;-49
2021/07/30 05:19:53;;;;;;;16.65;9.05;;;24.80;75.60;;;;;;5038734;28;20108;-49
2021/07/30 05:22:18;;;;;;;12.73;8.82;;;24.90;75.40;;;;;;5038683;28;20037;-49
2021/07/30 05:24:44;;;;;;;12.80;9.18;;;24.90;75.30;;;;;;5038924;28;20356;-47
2021/07/30 05:27:10;;;;;;;13.50;8.82;;;25.00;75.10;;;;;;5038441;28;20441;-47
2021/07/30 05:29:35;;;;;;;13.23;9.75;;;25.00;74.70;;;;;;5038435;28;20060;-48
2021/07/30 05:32:01;;;;;;;13.30;9.77;;;25.00;74.70;;;;;;5038682;28;20037;-44
2021/07/30 05:34:26;;;;;;;11.02;8.00;;;25.00;74.60;;;;;;5038313;28;20033;-46
2021/07/30 05:36:52;;;;;;;13.13;8.73;;;25.00;74.80;;;;;;5038102;28;20033;-44
2021/07/30 05:39:18;;;;;;;12.45;8.52;;;25.10;74.20;;;;;;5038100;28;20060;-45
2021/07/30 05:41:43;;;;;;;14.60;10.77;;;25.20;74.20;;;;;;5038400;28;20030;-45
2021/07/30 05:44:09;;;;;;;14.85;9.13;;;25.20;74.10;;;;;;5038024;28;20036;-47
2021/07/30 05:46:38;;;;;;;12.25;9.30;;;25.30;74.00;;;;;;5038151;28;20025;-47
2021/07/30 05:49:04;;;;;;;10.02;8.43;;;25.30;73.40;;;;;;5038458;28;20028;-47
2021/07/30 05:51:29;;;;;;;14.40;9.48;;;25.40;73.70;;;;;;5037917;28;20037;-49
2021/07/30 05:53:55;;;;;;;15.38;9.00;;;25.50;73.90;;;;;;5038540;28;20051;-46
2021/07/30 05:56:21;;;;;;;11.45;7.68;;;25.50;73.20;;;;;;5037742;28;20029;-46
2021/07/30 05:58:46;;;;;;;12.73;9.50;;;25.50;73.30;;;;;;5036873;28;20037;-47
2021/07/30 06:01:13;;;;;;;11.75;8.18;;;25.60;72.80;;;;;;5037172;28;20042;-47
2021/07/30 06:03:39;;;;;;;14.02;8.95;;;25.60;73.10;;;;;;5038005;28;20087;-47
2021/07/30 06:06:05;;;;;;;10.35;8.27;;;25.70;73.00;;;;;;5038096;28;20112;-49
2021/07/30 06:08:31;;;;;;;12.05;8.50;;;25.70;72.80;;;;;;5038432;28;20104;-46
2021/07/30 06:10:57;;;;;;;10.55;8.55;;;25.80;72.90;;;;;;5037418;28;20030;-48
2021/07/30 06:13:22;;;;;;;10.73;9.10;;;25.80;72.90;;;;;;5037859;28;20071;-46
2021/07/30 06:15:48;;;;;;;16.42;9.57;;;25.90;72.30;;;;;;5037872;28;20128;-47
2021/07/30 06:18:13;;;;;;;9.52;8.45;;;25.90;72.40;;;;;;5037660;28;20067;-46
2021/07/30 06:20:39;;;;;;;10.80;8.32;;;26.00;72.30;;;;;;5035578;28;20044;-45
2021/07/30 06:23:05;;;;;;;14.90;8.40;;;26.10;71.80;;;;;;5056384;28;20082;-48
2021/07/30 06:25:30;;;;;;;12.40;9.50;;;26.10;71.90;;;;;;5057240;28;20033;-46
2021/07/30 06:27:56;;;;;;;14.05;8.50;;;26.20;71.40;;;;;;5057482;28;20104;-47
2021/07/30 06:30:22;;;;;;;10.68;7.85;;;26.20;70.50;;;;;;5057093;28;20386;-46
2021/07/30 06:32:47;;;;;;;10.30;9.25;;;26.30;69.70;;;;;;5056780;28;20051;-48
2021/07/30 06:35:15;;;;;;;13.27;9.15;;;26.40;69.40;;;;;;5057124;28;20065;-45
2021/07/30 06:37:41;;;;;;;14.05;8.45;;;26.50;68.70;;;;;;5057079;28;20029;-47
2021/07/30 06:40:07;;;;;;;13.95;7.88;;;26.50;68.70;;;;;;5056870;28;20049;-47
2021/07/30 06:42:37;;;;;;;12.35;8.15;;;26.60;68.20;;;;;;5056805;28;20124;-44
2021/07/30 06:45:04;;;;;;;13.40;10.38;;;26.60;67.50;;;;;;5057304;28;20057;-52
2021/07/30 06:47:30;;;;;;;11.63;10.10;;;26.70;67.30;;;;;;5056518;28;20053;-46
2021/07/30 06:49:55;;;;;;;11.70;10.00;;;26.70;67.40;;;;;;5056822;28;20053;-46
2021/07/30 06:52:21;;;;;;;10.93;8.63;;;26.80;67.30;;;;;;5056579;28;20097;-44
2021/07/30 06:54:46;;;;;;;14.90;10.02;;;26.80;67.00;;;;;;5056918;28;20037;-45
2021/07/30 06:57:13;;;;;;;12.25;8.82;;;26.90;66.70;;;;;;5056636;28;20032;-47
2021/07/30 06:59:39;;;;;;;13.00;10.63;;;26.90;66.10;;;;;;5057061;28;20041;-45
2021/07/30 07:02:05;;;;;;;12.55;8.02;;;26.90;65.90;;;;;;5056475;28;20036;-44
2021/07/30 07:04:32;;;;;;;14.32;8.35;;;26.90;66.00;;;;;;5056502;28;20044;-46
2021/07/30 07:06:57;;;;;;;9.85;7.70;;;27.00;66.00;;;;;;5056394;28;20021;-46
2021/07/30 07:09:24;;;;;;;9.18;7.20;;;27.00;65.50;;;;;;5056429;28;20086;-45
2021/07/30 07:11:50;;;;;;;10.13;8.57;;;27.10;65.70;;;;;;5056240;28;20100;-50
2021/07/30 07:14:16;;;;;;;12.25;9.50;;;27.10;65.50;;;;;;5055749;28;20129;-46
2021/07/30 07:16:42;;;;;;;10.60;8.10;;;27.10;64.90;;;;;;5055770;28;20333;-47
2021/07/30 07:19:11;;;;;;;7.63;6.90;;;27.10;64.70;;;;;;5056434;28;20035;-45
2021/07/30 07:21:38;;;;;;;7.78;6.97;;;27.10;63.80;;;;;;5055746;28;20029;-47
2021/07/30 07:24:04;;;;;;;7.43;6.38;;;27.10;64.10;;;;;;5056505;28;20098;-50
2021/07/30 07:26:31;;;;;;;9.88;7.38;;;27.20;64.40;;;;;;5055872;28;20037;-48
2021/07/30 07:28:56;;;;;;;9.88;7.68;;;27.20;64.20;;;;;;5056036;28;20472;-47
2021/07/30 07:31:22;;;;;;;16.10;8.18;;;27.20;64.00;;;;;;5055828;28;20318;-49
2021/07/30 07:33:47;;;;;;;9.48;6.85;;;27.20;63.40;;;;;;5055757;28;20425;-45
2021/07/30 07:36:13;;;;;;;9.00;6.78;;;27.20;63.10;;;;;;5055418;28;20040;-46
2021/07/30 07:38:39;;;;;;;8.55;6.90;;;27.20;63.30;;;;;;5055394;28;20063;-46
2021/07/30 07:41:04;;;;;;;7.78;6.47;;;27.30;64.10;;;;;;5056212;28;20083;-46
2021/07/30 07:43:30;;;;;;;8.07;6.72;;;27.30;63.40;;;;;;5056259;28;20427;-46
2021/07/30 07:45:56;;;;;;;10.77;7.05;;;27.40;63.10;;;;;;5055785;28;20437;-47
2021/07/30 07:48:21;;;;;;;10.35;7.07;;;27.40;63.00;;;;;;5056098;28;20063;-47
2021/07/30 07:50:47;;;;;;;8.85;7.65;;;27.40;63.10;;;;;;5056247;28;20025;-49
2021/07/30 07:53:14;;;;;;;8.45;7.43;;;27.40;62.60;;;;;;5055825;28;20333;-47
2021/07/30 07:55:40;;;;;;;9.52;7.05;;;27.50;62.40;;;;;;5056059;28;20052;-45
2021/07/30 07:58:06;;;;;;;7.85;6.13;;;27.50;62.30;;;;;;5055835;28;20048;-45
2021/07/30 08:00:31;;;;;;;8.45;6.75;;;27.50;61.70;;;;;;5055558;28;20036;-46
2021/07/30 08:02:57;;;;;;;9.77;7.32;;;27.60;62.00;;;;;;5055884;28;20120;-45
2021/07/30 08:05:23;;;;;;;9.68;7.30;;;27.60;62.20;;;;;;5055655;28;20025;-49
2021/07/30 08:07:48;;;;;;;8.68;6.57;;;27.60;62.10;;;;;;5055783;28;20405;-46
2021/07/30 08:10:14;;;;;;;8.70;5.90;;;27.70;62.20;;;;;;5055454;28;20055;-45
2021/07/30 08:12:39;;;;;;;7.07;6.35;;;27.70;61.50;;;;;;5055473;28;20158;-47
2021/07/30 08:15:06;;;;;;;7.35;6.15;;;27.70;61.30;;;;;;5055332;28;20025;-49
2021/07/30 08:17:37;;;;;;;7.55;5.97;;;27.70;61.00;;;;;;5055439;28;20413;-49
2021/07/30 08:20:04;;;;;;;7.28;5.85;;;27.80;60.90;;;;;;5055765;28;20048;-50
2021/07/30 08:22:29;;;;;;;8.40;6.97;;;27.80;60.70;;;;;;5055631;28;20347;-46
2021/07/30 08:24:55;;;;;;;7.90;6.40;;;27.80;60.90;;;;;;5055177;28;20114;-48
2021/07/30 08:27:21;;;;;;;7.47;6.57;;;27.90;60.70;;;;;;5055076;28;20025;-48
2021/07/30 08:29:46;;;;;;;6.88;6.18;;;27.90;60.00;;;;;;5055358;28;20071;-46
2021/07/30 08:32:12;;;;;;;7.00;5.55;;;27.90;60.20;;;;;;5055434;28;20029;-46
2021/07/30 08:34:38;;;;;;;8.82;6.78;;;27.90;60.50;;;;;;5054995;28;20036;-46
2021/07/30 08:37:05;;;;;;;8.05;6.50;;;28.00;60.80;;;;;;5055268;28;20040;-45
2021/07/30 08:39:31;;;;;;;6.53;5.68;;;28.00;60.60;;;;;;5055560;28;20057;-46
2021/07/30 08:41:59;;;;;;;7.43;6.63;;;28.00;60.40;;;;;;5054774;28;20021;-50
2021/07/30 08:44:25;;;;;;;7.53;6.60;;;28.00;59.90;;;;;;5054851;28;20068;-46
2021/07/30 08:46:52;;;;;;;8.95;6.40;;;28.00;60.30;;;;;;5054897;28;20017;-46
2021/07/30 08:49:18;;;;;;;9.85;6.28;;;28.10;60.50;;;;;;5055211;28;20082;-46
2021/07/30 08:51:49;;;;;;;6.82;6.13;;;28.10;60.10;;;;;;5055032;28;20087;-48
2021/07/30 08:54:15;;;;;;;7.65;6.68;;;28.10;60.40;;;;;;5055070;28;20558;-49
2021/07/30 08:56:41;;;;;;;9.05;6.40;;;28.10;59.80;;;;;;5054884;28;20057;-50
2021/07/30 08:59:09;;;;;;;7.30;6.35;;;28.20;59.90;;;;;;5055465;28;20054;-48
2021/07/30 09:01:36;;;;;;;7.70;6.18;;;28.20;59.80;;;;;;5053778;28;20417;-45
2021/07/30 09:04:02;;;;;;;11.60;5.90;;;28.20;60.00;;;;;;5054903;28;20033;-44
2021/07/30 09:06:28;;;;;;;6.65;5.95;;;28.20;59.90;;;;;;5054976;28;20325;-46
2021/07/30 09:08:54;;;;;;;7.68;6.50;;;28.30;60.10;;;;;;5055264;28;20036;-48
2021/07/30 09:11:27;;;;;;;7.40;6.53;;;28.30;60.10;;;;;;5054660;28;20029;-45
2021/07/30 09:13:53;;;;;;;6.97;6.28;;;28.30;59.80;;;;;;5055404;28;20036;-45
2021/07/30 09:16:18;;;;;;;7.93;6.50;;;28.40;60.00;;;;;;5055122;28;20044;-45
2021/07/30 09:18:45;;;;;;;8.02;5.93;;;28.40;59.70;;;;;;5055378;28;20025;-48
2021/07/30 09:21:18;;;;;;;7.05;6.20;;;28.50;59.70;;;;;;5054739;28;20033;-46
2021/07/30 09:23:55;;;;;;;8.13;6.25;;;28.60;59.70;;;;;;5055128;28;20021;-47
2021/07/30 09:26:46;;;;;;;7.35;6.15;;;28.60;59.80;;;;;;5055067;28;20110;-50
2021/07/30 09:29:26;;;;;;;8.50;6.30;;;28.70;59.00;;;;;;5054917;28;20040;-49
2021/07/30 09:32:00;;;;;;;18.10;7.70;;;28.70;58.90;;;;;;5054786;28;20032;-46
2021/07/30 09:34:45;;;;;;;10.73;6.85;;;28.80;58.80;;;;;;5054801;28;20269;-48
2021/07/30 09:37:17;;;;;;;10.38;7.05;;;28.80;59.20;;;;;;5056913;28;20021;-46
2021/07/30 09:39:48;;;;;;;11.57;6.47;;;28.90;58.60;;;;;;5058257;28;20049;-47
2021/07/30 09:42:27;;;;;;;13.23;7.43;;;28.90;58.60;;;;;;5058253;28;20029;-46
2021/07/30 09:44:59;;;;;;;7.63;6.63;;;29.00;57.80;;;;;;5058104;28;20059;-49
2021/07/30 09:47:29;;;;;;;7.65;6.07;;;29.00;57.90;;;;;;5058078;28;20036;-47
2021/07/30 09:49:56;;;;;;;8.48;6.55;;;29.10;58.10;;;;;;5057762;28;20060;-48
2021/07/30 09:52:25;;;;;;;7.93;6.93;;;29.10;56.80;;;;;;5057766;28;20450;-47
2021/07/30 09:55:01;;;;;;;7.85;6.32;;;29.20;56.10;;;;;;5056991;28;20029;-50
2021/07/30 09:57:29;;;;;;;8.10;6.65;;;29.20;56.90;;;;;;5057898;28;20029;-46
2021/07/30 09:59:59;;;;;;;6.93;5.72;;;29.20;56.30;;;;;;5058294;28;20158;-47
2021/07/30 10:02:30;;;;;;;8.65;6.10;;;29.20;56.60;;;;;;5057981;28;20100;-47
2021/07/30 10:04:56;;;;;;;10.02;6.32;;;29.20;56.30;;;;;;5057982;28;20025;-45
2021/07/30 10:07:23;;;;;;;7.95;6.45;;;29.30;55.80;;;;;;5057596;28;20021;-50
2021/07/30 10:13:24;;;;;;;8.23;6.38;;;29.30;56.10;;;;;;5054963;28;20433;-45
2021/07/30 10:15:36;;;;;;;6.43;5.82;;;29.40;56.20;;;;;;5056657;28;20045;-45
2021/07/30 10:18:04;;;;;;;8.23;6.32;;;29.40;55.20;;;;;;5056380;28;20055;-45
2021/07/30 10:20:32;;;;;;;10.43;9.30;;;29.50;55.50;;;;;;5057667;28;20455;-47
2021/07/30 10:23:08;;;;;;;8.20;6.22;;;29.50;54.70;;;;;;5057899;28;20028;-47
2021/07/30 10:25:35;;;;;;;6.57;5.88;;;29.50;54.80;;;;;;5057471;28;20104;-46
2021/07/30 10:28:18;;;;;;;7.40;5.47;;;29.60;53.80;;;;;;5057510;28;20025;-45
2021/07/30 10:30:57;;;;;;;7.20;6.03;;;29.60;54.40;;;;;;5056328;28;20025;-47
2021/07/30 10:33:36;;;;;;;7.13;6.20;;;29.70;54.30;;;;;;5057081;28;20037;-48
2021/07/30 10:36:04;;;;;;;7.45;6.18;;;29.80;54.80;;;;;;5057272;28;20119;-44
2021/07/30 10:38:30;;;;;;;7.45;5.70;;;29.80;54.60;;;;;;5057270;28;20056;-45
2021/07/30 10:40:55;;;;;;;6.57;5.53;;;29.90;54.40;;;;;;5057198;28;20321;-47
2021/07/30 10:43:22;;;;;;;6.28;5.68;;;29.90;55.00;;;;;;5057149;28;20060;-47
2021/07/30 10:46:10;;;;;;;6.68;5.95;;;30.00;55.20;;;;;;5057142;28;20065;-46
2021/07/30 10:48:38;;;;;;;6.65;5.90;;;30.00;54.30;;;;;;5057306;28;20029;-48
2021/07/30 10:51:26;;;;;;;8.30;5.70;;;30.10;53.90;;;;;;5056601;28;20029;-48
2021/07/30 10:54:01;;;;;;;8.13;6.30;;;30.20;53.40;;;;;;5057370;28;20155;-49
2021/07/30 10:56:32;;;;;;;6.05;5.45;;;30.20;54.20;;;;;;5057107;28;20033;-48
2021/07/30 10:59:01;;;;;;;6.57;5.45;;;30.30;54.30;;;;;;5056995;28;20055;-48
2021/07/30 11:01:29;;;;;;;7.25;6.32;;;30.30;54.70;;;;;;5056961;28;20040;-46
2021/07/30 11:04:09;;;;;;;8.52;6.53;;;30.40;54.30;;;;;;5056934;28;20029;-45
2021/07/30 11:06:37;;;;;;;7.25;6.03;;;30.50;52.90;;;;;;5056721;28;20039;-47
2021/07/30 11:09:03;;;;;;;7.55;6.40;;;30.50;54.10;;;;;;5057074;28;20044;-47
2021/07/30 11:11:52;;;;;;;7.15;6.38;;;30.60;54.30;;;;;;5056566;28;20025;-51
2021/07/30 11:14:48;;;;;;;7.90;6.32;;;30.80;54.00;;;;;;5056770;28;20037;-44
2021/07/30 11:17:15;;;;;;;6.93;6.22;;;30.80;53.50;;;;;;5055499;28;20052;-46
2021/07/30 11:19:43;;;;;;;8.85;6.28;;;30.90;52.40;;;;;;5056496;28;20033;-47
2021/07/30 11:22:16;;;;;;;6.82;6.10;;;30.90;52.80;;;;;;5056363;28;20138;-47
2021/07/30 11:24:52;;;;;;;7.10;6.40;;;31.00;53.00;;;;;;5056146;28;20146;-46
2021/07/30 11:27:20;;;;;;;7.68;6.18;;;31.00;52.00;;;;;;5056284;28;20056;-44
2021/07/30 11:29:51;;;;;;;8.00;6.72;;;31.10;51.60;;;;;;5056141;28;20443;-48
2021/07/30 11:32:18;;;;;;;8.98;6.35;;;31.10;50.80;;;;;;5056135;28;20394;-46
2021/07/30 11:34:46;;;;;;;5.72;5.13;;;31.10;51.50;;;;;;5055159;28;20083;-45
2021/07/30 11:37:16;;;;;;;6.30;5.70;;;31.10;52.00;;;;;;5056174;28;20328;-45
2021/07/30 11:39:44;;;;;;;6.47;5.88;;;31.20;51.70;;;;;;5055878;28;20463;-46
2021/07/30 11:42:12;;;;;;;8.52;5.90;;;31.30;51.00;;;;;;5056087;28;20037;-47
2021/07/30 11:45:04;;;;;;;7.63;5.60;;;31.40;51.30;;;;;;5056147;28;20032;-46
2021/07/30 11:47:33;;;;;;;8.48;5.65;;;31.50;49.50;;;;;;5055954;28;20044;-45
2021/07/30 11:50:15;;;;;;;7.07;5.93;;;31.60;49.90;;;;;;5055678;28;20017;-46
2021/07/30 11:52:42;;;;;;;6.72;6.00;;;31.70;49.50;;;;;;5055817;28;20036;-49
2021/07/30 11:55:14;;;;;;;10.80;5.30;;;31.80;50.30;;;;;;5051172;28;20503;-46
2021/07/30 11:57:40;;;;;;;6.78;5.45;;;31.90;47.10;;;;;;5055942;28;20037;-49
2021/07/30 12:00:06;;;;;;;8.07;6.38;;;32.00;46.70;;;;;;5054983;28;20021;-48
2021/07/30 12:02:32;;;;;;;8.70;6.60;;;32.10;48.10;;;;;;5055218;28;20055;-48
2021/07/30 12:04:58;;;;;;;9.05;4.75;;;32.30;47.40;;;;;;5055230;28;20025;-46
2021/07/30 12:07:31;;;;;;;6.63;5.22;;;32.50;45.00;;;;;;5055329;28;20360;-47
2021/07/30 12:10:00;;;;;;;7.50;4.88;;;32.60;45.50;;;;;;5055270;28;20032;-50
2021/07/30 12:12:30;;;;;;;8.93;5.90;;;32.70;45.30;;;;;;5055282;28;20033;-47
2021/07/30 12:14:57;;;;;;;6.97;5.20;;;33.00;45.60;;;;;;5054908;28;20063;-45
2021/07/30 12:17:27;;;;;;;6.68;4.80;;;33.20;46.10;;;;;;5055405;28;20082;-48
2021/07/30 12:20:04;;;;;;;6.82;5.20;;;33.30;46.20;;;;;;5055084;28;20109;-48
2021/07/30 12:22:42;;;;;;;7.10;5.07;;;33.50;45.30;;;;;;5055374;28;20555;-49
2021/07/30 12:25:18;;;;;;;7.53;6.00;;;33.70;45.40;;;;;;5055045;28;20025;-46
2021/07/30 12:27:45;;;;;;;5.38;4.88;;;33.80;45.00;;;;;;5055207;28;20444;-47
2021/07/30 12:30:29;;;;;;;7.55;4.68;;;34.00;45.10;;;;;;5054749;28;20033;-47
2021/07/30 12:32:55;;;;;;;6.80;4.82;;;34.10;45.10;;;;;;5055403;28;20033;-46
2021/07/30 12:35:31;;;;;;;7.35;4.93;;;34.20;44.80;;;;;;5054662;28;20108;-47
2021/07/30 12:38:06;;;;;;;5.13;4.53;;;34.30;43.80;;;;;;5054899;28;20033;-48
2021/07/30 12:40:33;;;;;;;8.10;5.18;;;34.40;44.10;;;;;;5055080;28;20079;-46
2021/07/30 12:43:21;;;;;;;7.00;5.13;;;34.50;43.20;;;;;;5054868;28;20045;-49
2021/07/30 12:45:50;;;;;;;5.40;4.90;;;34.70;43.50;;;;;;5055154;28;20074;-46
2021/07/30 12:48:22;;;;;;;5.05;4.45;;;34.80;43.00;;;;;;5055227;28;20029;-45